createdAt,value
2018-12-05T00:01:14.125Z,7.50
2018-12-05T00:03:46.029Z,7.90
2018-12-05T00:06:16.512Z,7.70
2018-12-05T00:08:52.943Z,6.93
2018-12-05T00:11:24.723Z,6.80
2018-12-05T00:13:56.441Z,7.70
2018-12-05T00:16:27.403Z,7.80
2018-12-05T00:18:57.971Z,7.93
2018-12-05T00:21:28.408Z,12.70
2018-12-05T00:23:59.096Z,8.23
2018-12-05T00:26:30.189Z,7.43
2018-12-05T00:29:01.273Z,17.90
2018-12-05T00:31:32.402Z,7.20
2018-12-05T00:34:03.594Z,6.90
2018-12-05T00:36:34.696Z,6.50
2018-12-05T00:39:07.315Z,8.10
2018-12-05T00:41:38.355Z,5.80
2018-12-05T00:44:09.137Z,7.30
2018-12-05T00:46:40.186Z,7.00
2018-12-05T00:49:11.148Z,7.23
2018-12-05T00:51:41.932Z,6.50
2018-12-05T00:54:13.447Z,6.20
2018-12-05T00:56:44.566Z,6.40
2018-12-05T00:59:16.603Z,6.50
2018-12-05T01:01:47.965Z,5.70
2018-12-05T01:04:18.615Z,5.97
2018-12-05T01:06:49.636Z,7.33
2018-12-05T01:09:21.601Z,5.60
2018-12-05T01:11:52.461Z,5.63
2018-12-05T01:14:24.334Z,6.50
2018-12-05T01:16:55.640Z,6.83
2018-12-05T01:19:27.823Z,6.13
2018-12-05T01:21:59.466Z,6.30
2018-12-05T01:24:30.862Z,6.10
2018-12-05T01:27:02.924Z,5.63
2018-12-05T01:29:34.507Z,6.30
2018-12-05T01:32:06.039Z,5.37
2018-12-05T01:34:38.443Z,6.53
2018-12-05T01:37:10.518Z,7.00
2018-12-05T01:39:42.811Z,7.77
2018-12-05T01:42:14.161Z,5.77
2018-12-05T01:44:45.195Z,6.30
2018-12-05T01:47:16.987Z,5.63
2018-12-05T01:49:48.852Z,6.50
2018-12-05T01:52:20.859Z,6.37
2018-12-05T01:54:53.130Z,4.30
2018-12-05T01:57:24.575Z,5.27
2018-12-05T01:59:56.049Z,5.30
2018-12-05T02:02:28.043Z,6.57
2018-12-05T02:04:59.687Z,4.97
2018-12-05T02:07:31.362Z,6.40
2018-12-05T02:10:02.929Z,4.97
2018-12-05T02:12:33.475Z,5.70
2018-12-05T02:15:04.994Z,5.47
2018-12-05T02:17:36.828Z,6.40
2018-12-05T02:20:08.474Z,5.70
2018-12-05T02:22:39.931Z,6.27
2018-12-05T02:25:11.189Z,5.17
2018-12-05T02:27:43.123Z,5.30
2018-12-05T02:30:14.343Z,4.70
2018-12-05T02:32:45.717Z,5.50
2018-12-05T02:35:18.278Z,4.70
2018-12-05T02:37:48.862Z,5.40
2018-12-05T02:40:20.099Z,6.07
2018-12-05T02:42:50.843Z,5.30
2018-12-05T02:45:22.518Z,4.93
2018-12-05T02:47:53.718Z,5.53
2018-12-05T02:50:24.472Z,5.77
2018-12-05T02:52:55.242Z,5.37
2018-12-05T02:55:26.494Z,6.30
2018-12-05T02:57:57.606Z,5.10
2018-12-05T03:00:29.249Z,5.30
2018-12-05T03:03:00.300Z,6.03
2018-12-05T03:05:31.719Z,4.90
2018-12-05T03:08:03.407Z,5.47
2018-12-05T03:10:34.801Z,6.10
2018-12-05T03:13:06.012Z,5.27
2018-12-05T03:15:38.594Z,7.50
2018-12-05T03:18:10.119Z,5.40
2018-12-05T03:20:41.685Z,6.00
2018-12-05T03:23:12.920Z,5.87
2018-12-05T03:25:44.801Z,7.07
2018-12-05T03:28:15.879Z,6.60
2018-12-05T03:30:47.757Z,6.40
2018-12-05T03:33:19.602Z,8.30
2018-12-05T03:35:51.114Z,7.10
2018-12-05T03:38:22.713Z,7.10
2018-12-05T03:40:53.835Z,7.37
2018-12-05T03:43:24.569Z,6.23
2018-12-05T03:45:55.352Z,7.70
2018-12-05T03:48:27.314Z,7.53
2018-12-05T03:50:58.989Z,6.60
2018-12-05T03:53:30.158Z,7.83
2018-12-05T03:56:01.641Z,7.53
2018-12-05T03:58:32.515Z,6.80
2018-12-05T04:01:04.560Z,7.60
2018-12-05T04:03:36.397Z,7.50
2018-12-05T04:06:07.228Z,7.80
2018-12-05T04:08:38.444Z,5.87
2018-12-05T04:11:10.213Z,8.03
2018-12-05T04:13:41.906Z,7.97
2018-12-05T04:16:13.407Z,8.77
2018-12-05T04:18:45.293Z,8.10
2018-12-05T04:21:17.080Z,9.13
2018-12-05T04:23:49.265Z,7.63
2018-12-05T04:26:20.565Z,8.43
2018-12-05T04:28:52.831Z,8.83
2018-12-05T04:31:24.665Z,6.40
2018-12-05T04:33:56.171Z,7.77
2018-12-05T04:36:27.918Z,8.33
2018-12-05T04:38:59.966Z,8.67
2018-12-05T04:41:31.241Z,8.27
2018-12-05T04:44:02.221Z,10.00
2018-12-05T04:46:34.653Z,8.33
2018-12-05T04:49:06.437Z,8.70
2018-12-05T04:51:37.825Z,7.07
2018-12-05T04:54:09.109Z,7.60
2018-12-05T04:56:40.188Z,7.70
2018-12-05T04:59:12.263Z,7.30
2018-12-05T05:01:43.778Z,6.53
2018-12-05T05:04:14.798Z,7.23
2018-12-05T05:06:46.522Z,8.00
2018-12-05T05:09:17.902Z,7.87
2018-12-05T05:11:49.642Z,8.07
2018-12-05T05:14:21.363Z,8.23
2018-12-05T05:16:52.876Z,7.00
2018-12-05T05:19:24.788Z,7.60
2018-12-05T05:21:56.297Z,7.23
2018-12-05T05:24:28.262Z,6.97
2018-12-05T05:27:00.881Z,6.30
2018-12-05T05:29:32.203Z,6.67
2018-12-05T05:32:03.991Z,6.37
2018-12-05T05:34:35.613Z,6.07
2018-12-05T05:37:07.585Z,7.47
2018-12-05T05:39:38.926Z,6.50
2018-12-05T05:42:10.303Z,5.60
2018-12-05T05:44:42.180Z,6.60
2018-12-05T05:47:13.242Z,6.63
2018-12-05T05:49:45.413Z,6.67
2018-12-05T05:52:17.011Z,7.30
2018-12-05T05:54:48.364Z,7.77
2018-12-05T05:57:19.569Z,6.60
2018-12-05T05:59:50.613Z,5.83
2018-12-05T06:02:21.741Z,6.77
2018-12-05T06:04:52.892Z,9.57
2018-12-05T06:07:24.080Z,8.57
2018-12-05T06:09:55.601Z,10.40
2018-12-05T06:12:26.051Z,22.70
2018-12-05T06:14:57.047Z,13.97
2018-12-05T06:17:28.409Z,11.27
2018-12-05T06:19:59.233Z,10.60
2018-12-05T06:22:31.519Z,9.47
2018-12-05T06:25:03.137Z,10.63
2018-12-05T06:27:34.530Z,13.50
2018-12-05T06:30:07.724Z,11.30
2018-12-05T06:32:38.197Z,10.70
2018-12-05T06:35:09.925Z,10.20
2018-12-05T06:37:41.274Z,10.43
2018-12-05T06:40:12.129Z,10.37
2018-12-05T06:42:43.679Z,9.77
2018-12-05T06:45:14.745Z,9.77
2018-12-05T06:47:46.322Z,15.63
2018-12-05T06:50:18.609Z,16.80
2018-12-05T06:52:50.819Z,13.40
2018-12-05T06:55:22.654Z,14.23
2018-12-05T06:57:53.736Z,14.90
2018-12-05T07:00:25.219Z,13.50
2018-12-05T07:02:56.723Z,13.93
2018-12-05T07:05:27.595Z,12.53
2018-12-05T07:07:58.786Z,13.00
2018-12-05T07:10:29.400Z,12.53
2018-12-05T07:13:00.140Z,13.63
2018-12-05T07:15:31.526Z,12.50
2018-12-05T07:18:02.617Z,14.23
2018-12-05T07:20:33.317Z,15.40
2018-12-05T07:23:04.851Z,14.57
2018-12-05T07:25:35.793Z,13.57
2018-12-05T07:28:07.930Z,14.20
2018-12-05T07:30:39.129Z,14.30
2018-12-05T07:33:10.171Z,12.43
2018-12-05T07:35:41.632Z,12.00
2018-12-05T07:38:19.188Z,12.17
2018-12-05T07:40:45.642Z,14.10
2018-12-05T07:43:16.654Z,15.83
2018-12-05T07:45:47.962Z,12.43
2018-12-05T07:48:19.033Z,12.63
2018-12-05T07:55:56.034Z,12.33
2018-12-05T07:58:27.312Z,12.57
2018-12-05T08:00:57.800Z,15.07
2018-12-05T08:03:29.758Z,16.80
2018-12-05T08:06:01.322Z,15.83
2018-12-05T08:08:33.232Z,14.50
2018-12-05T08:11:04.584Z,14.67
2018-12-05T08:13:36.238Z,14.70
2018-12-05T08:16:09.566Z,16.97
2018-12-05T08:18:40.828Z,17.50
2018-12-05T08:21:12.856Z,17.77
2018-12-05T08:23:44.538Z,17.30
2018-12-05T08:26:15.898Z,17.40
2018-12-05T08:28:47.763Z,18.00
2018-12-05T08:31:18.773Z,16.77
2018-12-05T08:33:49.977Z,17.50
2018-12-05T08:36:20.532Z,17.50
2018-12-05T08:38:52.414Z,18.07
2018-12-05T08:41:23.543Z,17.67
2018-12-05T08:43:54.589Z,16.57
2018-12-05T08:46:25.998Z,18.00
2018-12-05T08:48:56.836Z,19.57
2018-12-05T08:51:28.204Z,18.70
2018-12-05T08:53:59.912Z,17.17
2018-12-05T08:56:30.870Z,17.60
2018-12-05T08:59:01.886Z,17.70
2018-12-05T09:01:32.575Z,18.23
2018-12-05T09:04:03.554Z,18.40
2018-12-05T09:06:34.598Z,17.10
2018-12-05T09:09:05.798Z,17.93
2018-12-05T09:11:36.332Z,19.50
2018-12-05T09:14:07.009Z,18.10
2018-12-05T09:16:38.578Z,16.77
2018-12-05T09:19:10.276Z,20.40
2018-12-05T09:21:40.635Z,18.50
2018-12-05T09:24:12.068Z,18.00
2018-12-05T09:26:43.246Z,17.20
2018-12-05T09:29:14.318Z,19.37
2018-12-05T09:31:45.235Z,18.87
2018-12-05T09:34:16.107Z,18.83
2018-12-05T09:36:46.486Z,17.60
2018-12-05T09:39:17.098Z,16.47
2018-12-05T09:41:48.344Z,18.93
2018-12-05T09:44:18.694Z,17.00
2018-12-05T09:46:50.116Z,18.27
2018-12-05T09:49:20.944Z,16.87
2018-12-05T09:51:52.808Z,19.73
2018-12-05T09:54:24.284Z,17.80
2018-12-05T09:56:56.377Z,17.43
2018-12-05T09:59:27.370Z,17.30
2018-12-05T10:02:00.976Z,21.00
2018-12-05T10:04:32.085Z,17.90
2018-12-05T10:07:04.040Z,18.53
2018-12-05T10:09:35.254Z,18.73
2018-12-05T10:12:07.308Z,18.43
2018-12-05T10:14:38.504Z,16.20
2018-12-05T10:17:10.522Z,17.70
2018-12-05T10:19:41.189Z,18.57
2018-12-05T10:22:13.279Z,18.00
2018-12-05T10:24:44.130Z,18.07
2018-12-05T10:27:15.082Z,17.20
2018-12-05T10:29:46.957Z,18.10
2018-12-05T10:32:19.506Z,17.83
2018-12-05T10:34:51.373Z,18.10
2018-12-05T10:37:22.654Z,18.27
2018-12-05T10:39:54.405Z,19.50
2018-12-05T10:42:26.295Z,16.83
2018-12-05T10:44:57.778Z,18.30
2018-12-05T10:47:29.519Z,17.77
2018-12-05T10:50:00.843Z,17.60
2018-12-05T10:52:31.772Z,17.03
2018-12-05T10:55:02.757Z,17.07
2018-12-05T10:57:34.283Z,15.20
2018-12-05T11:00:09.311Z,16.47
2018-12-05T11:03:20.769Z,15.53
2018-12-05T11:05:57.083Z,16.00
2018-12-05T11:08:33.484Z,15.93
2018-12-05T11:11:10.486Z,15.33
2018-12-05T11:13:46.985Z,15.77
2018-12-05T11:16:53.654Z,16.10
2018-12-05T11:19:29.894Z,16.13
2018-12-05T11:22:05.921Z,16.70
2018-12-05T11:24:39.647Z,16.53
2018-12-05T11:27:11.229Z,16.20
2018-12-05T11:29:43.602Z,16.80
2018-12-05T11:32:15.522Z,16.17
2018-12-05T11:34:46.462Z,17.43
2018-12-05T11:37:17.492Z,15.10
2018-12-05T11:39:48.989Z,16.50
2018-12-05T11:42:20.871Z,17.40
2018-12-05T11:44:52.041Z,16.97
2018-12-05T11:47:22.948Z,17.80
2018-12-05T11:49:54.681Z,17.57
2018-12-05T11:52:26.316Z,18.03
2018-12-05T11:54:57.952Z,17.87
2018-12-05T11:57:29.813Z,16.70
2018-12-05T12:00:02.745Z,16.70
2018-12-05T12:02:34.402Z,17.63
2018-12-05T12:05:07.613Z,17.80
2018-12-05T12:07:39.435Z,17.47
2018-12-05T12:10:11.090Z,17.30
2018-12-05T12:12:48.843Z,16.87
2018-12-05T12:15:21.512Z,17.17
2018-12-05T12:17:52.384Z,17.80
2018-12-05T12:20:26.025Z,17.80
2018-12-05T12:22:58.409Z,17.77
2018-12-05T12:25:30.123Z,16.80
2018-12-05T12:28:01.394Z,17.73
2018-12-05T12:30:33.477Z,16.60
2018-12-05T12:33:05.477Z,17.00
2018-12-05T12:35:37.043Z,16.90
2018-12-05T12:38:09.010Z,15.67
2018-12-05T12:40:40.642Z,17.10
2018-12-05T12:43:12.422Z,18.23
2018-12-05T12:45:43.971Z,17.57
2018-12-05T12:48:15.455Z,18.30
2018-12-05T12:50:47.220Z,16.83
2018-12-05T12:53:18.157Z,16.60
2018-12-05T12:55:49.423Z,16.10
2018-12-05T12:58:21.086Z,17.13
2018-12-05T13:00:52.283Z,16.80
2018-12-05T13:03:22.898Z,18.00
2018-12-05T13:05:53.661Z,14.80
2018-12-05T13:08:24.911Z,16.50
2018-12-05T13:10:57.034Z,16.40
2018-12-05T13:13:28.510Z,18.40
2018-12-05T13:15:59.972Z,16.60
2018-12-05T13:18:31.024Z,15.40
2018-12-05T13:21:03.444Z,14.70
2018-12-05T13:23:35.693Z,14.13
2018-12-05T13:26:07.177Z,15.90
2018-12-05T13:28:39.147Z,16.10
2018-12-05T13:31:09.869Z,15.50
2018-12-05T13:33:41.208Z,16.90
2018-12-05T13:36:12.734Z,16.30
2018-12-05T13:38:43.700Z,14.87
2018-12-05T13:41:14.954Z,15.83
2018-12-05T13:43:46.199Z,17.17
2018-12-05T13:46:17.743Z,16.43
2018-12-05T13:48:49.197Z,17.27
2018-12-05T13:51:20.433Z,16.23
2018-12-05T13:53:51.751Z,17.10
2018-12-05T13:56:23.467Z,15.10
2018-12-05T13:58:55.349Z,17.20
2018-12-05T14:01:27.143Z,16.50
2018-12-05T14:03:58.969Z,21.03
2018-12-05T14:06:31.245Z,19.23
2018-12-05T14:09:02.148Z,19.57
2018-12-05T14:11:33.322Z,17.80
2018-12-05T14:14:05.138Z,19.10
2018-12-05T14:16:36.623Z,17.77
2018-12-05T14:19:08.343Z,18.00
2018-12-05T14:21:40.891Z,17.53
2018-12-05T14:24:12.516Z,17.20
2018-12-05T14:26:43.709Z,18.50
2018-12-05T14:29:14.399Z,17.17
2018-12-05T14:31:45.781Z,16.77
2018-12-05T14:34:17.442Z,16.50
2018-12-05T14:36:48.407Z,16.77
2018-12-05T14:39:19.035Z,15.97
2018-12-05T14:41:49.750Z,16.80
2018-12-05T14:44:20.551Z,16.70
2018-12-05T14:46:51.473Z,15.27
2018-12-05T14:49:22.442Z,17.30
2018-12-05T14:51:54.411Z,15.50
2018-12-05T14:54:25.202Z,16.30
2018-12-05T14:56:56.683Z,17.93
2018-12-05T14:59:28.121Z,20.10
2018-12-05T15:01:59.101Z,20.97
2018-12-05T15:04:30.754Z,18.90
2018-12-05T15:07:01.611Z,18.47
2018-12-05T15:09:32.442Z,17.07
2018-12-05T15:12:04.601Z,18.20
2018-12-05T15:14:36.212Z,17.47
2018-12-05T15:17:06.437Z,20.60
2018-12-05T15:19:38.352Z,24.53
2018-12-05T15:22:10.319Z,24.27
2018-12-05T15:24:41.385Z,20.60
2018-12-05T15:27:12.658Z,23.33
2018-12-05T15:29:43.791Z,26.30
2018-12-05T15:32:14.463Z,26.80
2018-12-05T15:34:45.004Z,26.83
2018-12-05T15:37:16.201Z,25.30
2018-12-05T15:39:47.253Z,20.13
2018-12-05T15:42:18.001Z,25.80
2018-12-05T15:44:48.996Z,24.40
2018-12-05T15:47:20.566Z,21.30
2018-12-05T15:49:51.885Z,21.83
2018-12-05T15:52:23.452Z,22.40
2018-12-05T15:54:55.018Z,25.90
2018-12-05T15:57:26.236Z,21.17
2018-12-05T15:59:57.512Z,20.53
2018-12-05T16:02:29.395Z,29.10
2018-12-05T16:05:01.413Z,41.67
2018-12-05T16:07:32.965Z,38.43
2018-12-05T16:10:04.545Z,32.73
2018-12-05T16:12:38.775Z,26.83
2018-12-05T16:15:10.053Z,27.50
2018-12-05T16:17:41.534Z,29.60
2018-12-05T16:20:13.156Z,27.97
2018-12-05T16:22:45.900Z,28.03
2018-12-05T16:25:17.257Z,48.37
2018-12-05T16:27:48.213Z,69.37
2018-12-05T16:30:19.870Z,92.70
2018-12-05T16:32:51.658Z,50.83
2018-12-05T16:35:23.320Z,41.13
2018-12-05T16:37:54.962Z,33.93
2018-12-05T16:40:26.255Z,32.93
2018-12-05T16:42:58.183Z,33.10
2018-12-05T16:45:29.646Z,34.10
2018-12-05T16:48:01.891Z,36.50
2018-12-05T16:50:34.238Z,35.37
2018-12-05T16:53:06.165Z,39.83
2018-12-05T16:55:38.642Z,39.13
2018-12-05T16:58:10.644Z,35.10
2018-12-05T17:00:44.450Z,42.80
2018-12-05T17:03:16.346Z,38.90
2018-12-05T17:05:49.325Z,43.60
2018-12-05T17:08:21.616Z,44.73
2018-12-05T17:10:54.898Z,42.27
2018-12-05T17:13:27.157Z,45.17
2018-12-05T17:15:58.478Z,46.73
2018-12-05T17:18:31.124Z,46.13
2018-12-05T17:21:03.879Z,47.50
2018-12-05T17:23:36.924Z,51.90
2018-12-05T17:26:09.527Z,66.63
2018-12-05T17:28:41.909Z,59.70
2018-12-05T17:31:14.846Z,51.93
2018-12-05T17:33:49.442Z,46.83
2018-12-05T17:36:22.241Z,42.07
2018-12-05T17:38:54.495Z,45.00
2018-12-05T17:41:26.850Z,40.07
2018-12-05T17:43:58.964Z,35.60
2018-12-05T17:46:31.886Z,35.67
2018-12-05T17:49:04.997Z,36.87
2018-12-05T17:51:37.737Z,40.70
2018-12-05T17:54:14.839Z,43.83
2018-12-05T17:56:44.601Z,42.57
2018-12-05T17:59:16.484Z,46.77
2018-12-05T18:01:49.327Z,47.47
2018-12-05T18:04:22.242Z,47.70
2018-12-05T18:06:55.084Z,49.17
2018-12-05T18:09:28.131Z,54.03
2018-12-05T18:11:59.904Z,49.90
2018-12-05T18:14:32.883Z,51.03
2018-12-05T18:17:05.006Z,50.67
2018-12-05T18:19:36.602Z,44.33
2018-12-05T18:22:09.686Z,57.97
2018-12-05T18:24:42.383Z,50.33
2018-12-05T18:27:14.783Z,51.60
2018-12-05T18:29:47.726Z,53.27
2018-12-05T18:32:20.728Z,52.67
2018-12-05T18:34:53.446Z,50.00
2018-12-05T18:37:26.587Z,50.73
2018-12-05T18:39:59.922Z,57.40
2018-12-05T18:42:32.228Z,53.17
2018-12-05T18:45:04.465Z,59.87
2018-12-05T18:47:37.710Z,58.43
2018-12-05T18:50:10.298Z,60.47
2018-12-05T18:52:43.322Z,80.90
2018-12-05T18:55:15.808Z,59.53
2018-12-05T18:57:47.540Z,75.40
2018-12-05T19:00:19.339Z,66.00
2018-12-05T19:02:51.282Z,84.40
2018-12-05T19:05:22.558Z,84.20
2018-12-05T19:07:55.386Z,75.53
2018-12-05T19:10:27.704Z,63.60
2018-12-05T19:13:01.066Z,52.70
2018-12-05T19:15:35.490Z,44.60
2018-12-05T19:18:07.920Z,50.90
2018-12-05T19:20:40.650Z,55.50
2018-12-05T19:23:13.934Z,56.57
2018-12-05T19:25:46.851Z,57.27
2018-12-05T19:28:20.061Z,51.70
2018-12-05T19:30:54.382Z,55.50
2018-12-05T19:33:28.266Z,79.67
2018-12-05T19:36:00.429Z,68.27
2018-12-05T19:38:34.087Z,85.57
2018-12-05T19:41:05.967Z,67.67
2018-12-05T19:43:38.286Z,71.20
2018-12-05T19:46:11.573Z,80.50
2018-12-05T19:48:44.897Z,85.33
2018-12-05T19:51:17.483Z,82.80
2018-12-05T19:53:49.963Z,72.63
2018-12-05T19:56:23.205Z,86.67
2018-12-05T19:58:56.605Z,77.97
2018-12-05T20:01:29.699Z,103.22
2018-12-05T20:04:01.377Z,91.40
2018-12-05T20:06:33.049Z,112.80
2018-12-05T20:09:06.183Z,99.50
2018-12-05T20:11:37.944Z,113.45
2018-12-05T20:14:13.139Z,97.67
2018-12-05T20:16:46.801Z,101.35
2018-12-05T20:19:21.089Z,92.13
2018-12-05T20:21:54.656Z,90.37
2018-12-05T20:24:27.182Z,87.60
2018-12-05T20:26:59.430Z,85.47
2018-12-05T20:29:30.658Z,84.67
2018-12-05T20:32:03.409Z,91.40
2018-12-05T20:34:34.855Z,87.83
2018-12-05T20:37:06.179Z,89.67
2018-12-05T20:39:39.327Z,80.20
2018-12-05T20:42:11.500Z,77.67
2018-12-05T20:44:43.399Z,85.97
2018-12-05T20:47:15.730Z,85.40
2018-12-05T20:49:49.092Z,80.33
2018-12-05T20:52:22.826Z,77.50
2018-12-05T20:54:56.010Z,82.67
2018-12-05T20:57:27.862Z,81.93
2018-12-05T20:59:59.743Z,81.53
2018-12-05T21:02:32.574Z,83.57
2018-12-05T21:05:05.540Z,84.47
2018-12-05T21:07:38.478Z,85.47
2018-12-05T21:10:10.740Z,79.50
2018-12-05T21:12:43.340Z,72.40
2018-12-05T21:15:15.734Z,73.97
2018-12-05T21:17:49.960Z,77.20
2018-12-05T21:20:22.502Z,79.23
2018-12-05T21:22:54.878Z,73.00
2018-12-05T21:25:27.342Z,69.57
2018-12-05T21:27:58.885Z,67.67
2018-12-05T21:30:30.930Z,65.93
2018-12-05T21:33:03.180Z,65.23
2018-12-05T21:35:36.221Z,65.77
2018-12-05T21:38:12.989Z,57.57
2018-12-05T21:40:45.892Z,58.90
2018-12-05T21:43:19.052Z,60.70
2018-12-05T21:45:51.501Z,63.00
2018-12-05T21:48:23.145Z,62.00
2018-12-05T21:50:54.816Z,65.77
2018-12-05T21:53:26.918Z,64.27
2018-12-05T21:55:58.903Z,58.93
2018-12-05T21:58:30.213Z,61.23
2018-12-05T22:01:01.491Z,62.70
2018-12-05T22:03:32.698Z,69.50
2018-12-05T22:06:04.055Z,66.60
2018-12-05T22:08:35.362Z,63.87
2018-12-05T22:11:06.736Z,65.30
2018-12-05T22:13:38.853Z,70.87
2018-12-05T22:16:11.658Z,59.67
2018-12-05T22:18:43.769Z,55.23
2018-12-05T22:21:15.699Z,56.63
2018-12-05T22:23:48.805Z,60.10
2018-12-05T22:26:20.475Z,57.77
2018-12-05T22:28:51.525Z,59.20
2018-12-05T22:31:24.249Z,52.87
2018-12-05T22:33:55.508Z,55.27
2018-12-05T22:36:27.440Z,54.57
2018-12-05T22:38:58.622Z,52.30
2018-12-05T22:41:30.120Z,52.73
2018-12-05T22:44:01.360Z,53.57
2018-12-05T22:46:33.287Z,56.67
2018-12-05T22:49:04.758Z,53.07
2018-12-05T22:51:35.843Z,58.07
2018-12-05T22:54:06.768Z,49.50
2018-12-05T22:56:37.646Z,48.67
2018-12-05T22:59:09.450Z,51.17
2018-12-05T23:01:41.127Z,53.70
2018-12-05T23:04:12.477Z,49.73
2018-12-05T23:06:44.139Z,51.07
2018-12-05T23:09:15.854Z,47.67
2018-12-05T23:11:47.440Z,50.87
2018-12-05T23:14:18.760Z,52.27
2018-12-05T23:16:50.072Z,56.23
2018-12-05T23:19:21.738Z,49.60
2018-12-05T23:21:54.011Z,55.27
2018-12-05T23:24:27.082Z,55.30
2018-12-05T23:26:58.006Z,51.90
2018-12-05T23:29:28.692Z,53.90
2018-12-05T23:31:59.432Z,52.23
2018-12-05T23:34:30.396Z,56.53
2018-12-05T23:37:01.907Z,54.43
2018-12-05T23:39:33.585Z,56.10
2018-12-05T23:42:05.964Z,55.50
2018-12-05T23:44:37.280Z,57.73
2018-12-05T23:47:08.272Z,59.73
2018-12-05T23:49:39.561Z,60.03
2018-12-05T23:52:10.868Z,59.80
2018-12-05T23:54:42.230Z,52.97
2018-12-05T23:57:13.167Z,58.07
2018-12-05T23:59:44.995Z,56.47
